createdAt,value
2018-06-11T00:00:54.626Z,9.97
2018-06-11T00:03:26.197Z,6.77
2018-06-11T00:05:57.745Z,7.93
2018-06-11T00:08:29.416Z,8.63
2018-06-11T00:11:00.954Z,10.10
2018-06-11T00:13:32.627Z,7.30
2018-06-11T00:16:04.299Z,7.97
2018-06-11T00:18:35.948Z,6.30
2018-06-11T00:21:07.473Z,7.43
2018-06-11T00:23:39.054Z,8.80
2018-06-11T00:26:10.656Z,9.10
2018-06-11T00:28:42.290Z,8.63
2018-06-11T00:31:14.001Z,7.43
2018-06-11T00:33:45.798Z,7.83
2018-06-11T00:36:17.541Z,8.30
2018-06-11T00:38:49.199Z,8.30
2018-06-11T00:41:20.849Z,6.93
2018-06-11T00:43:52.405Z,7.03
2018-06-11T00:46:23.974Z,7.07
2018-06-11T00:48:55.615Z,7.90
2018-06-11T00:51:27.143Z,7.27
2018-06-11T00:53:58.729Z,7.43
2018-06-11T00:56:30.386Z,7.17
2018-06-11T00:59:02.008Z,7.43
2018-06-11T01:01:33.669Z,6.77
2018-06-11T01:04:05.513Z,7.97
2018-06-11T01:06:37.329Z,9.37
2018-06-11T01:09:10.105Z,8.17
2018-06-11T01:11:41.757Z,7.27
2018-06-11T01:14:13.413Z,8.40
2018-06-11T01:16:45.021Z,9.90
2018-06-11T01:19:16.743Z,10.00
2018-06-11T01:21:48.493Z,6.77
2018-06-11T01:24:20.138Z,8.73
2018-06-11T01:26:51.638Z,9.53
2018-06-11T01:29:23.344Z,9.03
2018-06-11T01:31:54.840Z,8.53
2018-06-11T01:34:26.962Z,7.07
2018-06-11T01:36:58.739Z,8.57
2018-06-11T01:39:30.378Z,6.20
2018-06-11T01:42:02.038Z,9.00
2018-06-11T01:44:33.690Z,8.17
2018-06-11T01:47:05.412Z,6.80
2018-06-11T01:49:37.034Z,7.90
2018-06-11T01:52:08.609Z,8.27
2018-06-11T01:54:40.320Z,7.37
2018-06-11T01:57:11.989Z,7.33
2018-06-11T01:59:43.778Z,9.00
2018-06-11T02:02:15.252Z,6.97
2018-06-11T02:04:46.940Z,7.30
2018-06-11T02:07:18.554Z,6.80
2018-06-11T02:09:50.219Z,7.27
2018-06-11T02:12:21.898Z,7.03
2018-06-11T02:14:53.489Z,8.17
2018-06-11T02:17:25.515Z,6.97
2018-06-11T02:19:57.189Z,7.57
2018-06-11T02:22:28.773Z,7.73
2018-06-11T02:25:00.428Z,8.00
2018-06-11T02:27:32.027Z,8.30
2018-06-11T02:30:03.650Z,8.03
2018-06-11T02:32:35.292Z,8.93
2018-06-11T02:35:07.150Z,7.97
2018-06-11T02:37:39.058Z,7.63
2018-06-11T02:40:10.882Z,8.17
2018-06-11T02:42:42.486Z,10.03
2018-06-11T02:45:14.063Z,8.90
2018-06-11T02:47:45.674Z,7.90
2018-06-11T02:50:17.299Z,7.97
2018-06-11T02:52:48.784Z,8.27
2018-06-11T02:55:20.493Z,9.17
2018-06-11T02:57:52.121Z,7.73
2018-06-11T03:00:23.798Z,7.13
2018-06-11T03:02:55.333Z,7.63
2018-06-11T03:05:27.013Z,6.77
2018-06-11T03:07:58.662Z,7.83
2018-06-11T03:10:30.308Z,7.50
2018-06-11T03:13:02.096Z,7.73
2018-06-11T03:15:33.743Z,8.43
2018-06-11T03:18:05.493Z,8.07
2018-06-11T03:20:37.068Z,6.63
2018-06-11T03:23:08.551Z,6.70
2018-06-11T03:25:40.322Z,11.30
2018-06-11T03:28:11.903Z,9.37
2018-06-11T03:30:43.460Z,7.47
2018-06-11T03:33:14.972Z,8.20
2018-06-11T03:35:46.711Z,8.00
2018-06-11T03:38:18.425Z,7.43
2018-06-11T03:40:50.205Z,8.10
2018-06-11T03:43:21.738Z,9.70
2018-06-11T03:45:53.554Z,8.40
2018-06-11T03:48:25.267Z,7.93
2018-06-11T03:50:56.845Z,9.50
2018-06-11T03:53:28.327Z,10.00
2018-06-11T03:55:59.994Z,8.70
2018-06-11T03:58:31.553Z,8.73
2018-06-11T04:01:03.199Z,7.87
2018-06-11T04:03:34.783Z,10.53
2018-06-11T04:06:06.462Z,9.17
2018-06-11T04:08:38.109Z,7.93
2018-06-11T04:11:09.895Z,7.53
2018-06-11T04:13:41.554Z,7.27
2018-06-11T04:16:13.391Z,7.33
2018-06-11T04:18:44.978Z,7.67
2018-06-11T04:21:16.697Z,8.77
2018-06-11T04:23:48.457Z,7.90
2018-06-11T04:26:19.938Z,8.13
2018-06-11T04:28:51.772Z,7.87
2018-06-11T04:31:23.355Z,9.17
2018-06-11T04:33:54.825Z,8.90
2018-06-11T04:36:26.473Z,6.97
2018-06-11T04:38:58.036Z,7.47
2018-06-11T04:41:29.840Z,7.07
2018-06-11T04:44:01.390Z,7.07
2018-06-11T04:46:33.061Z,7.17
2018-06-11T04:49:04.599Z,7.63
2018-06-11T04:51:36.370Z,6.40
2018-06-11T04:54:07.907Z,6.53
2018-06-11T04:56:39.703Z,5.80
2018-06-11T04:59:11.340Z,5.40
2018-06-11T05:01:42.996Z,4.97
2018-06-11T05:04:14.501Z,4.80
2018-06-11T05:06:46.136Z,5.00
2018-06-11T05:09:17.600Z,6.33
2018-06-11T05:11:49.309Z,4.70
2018-06-11T05:14:20.856Z,7.60
2018-06-11T05:16:52.512Z,5.30
2018-06-11T05:19:24.192Z,5.83
2018-06-11T05:21:55.762Z,4.63
2018-06-11T05:24:27.279Z,8.17
2018-06-11T05:26:58.954Z,14.00
2018-06-11T05:29:30.121Z,9.97
2018-06-11T05:32:01.674Z,12.23
2018-06-11T05:34:33.326Z,11.83
2018-06-11T05:37:05.030Z,6.07
2018-06-11T05:39:36.753Z,8.10
2018-06-11T05:42:08.798Z,14.70
2018-06-11T05:44:40.482Z,15.23
2018-06-11T05:47:12.153Z,11.97
2018-06-11T05:49:43.978Z,11.77
2018-06-11T05:52:15.678Z,11.43
2018-06-11T05:54:47.537Z,11.63
2018-06-11T05:57:19.292Z,9.80
2018-06-11T05:59:50.953Z,8.77
2018-06-11T06:02:22.877Z,12.57
2018-06-11T06:04:54.621Z,13.17
2018-06-11T06:07:26.274Z,14.17
2018-06-11T06:09:57.825Z,13.63
2018-06-11T06:12:29.369Z,10.20
2018-06-11T06:15:01.137Z,7.07
2018-06-11T06:17:32.798Z,5.77
2018-06-11T06:20:04.552Z,5.73
2018-06-11T06:22:36.215Z,12.87
2018-06-11T06:25:07.769Z,10.07
2018-06-11T06:27:39.422Z,6.53
2018-06-11T06:30:10.974Z,7.47
2018-06-11T06:32:42.679Z,8.07
2018-06-11T06:35:14.392Z,6.40
2018-06-11T06:37:46.106Z,11.43
2018-06-11T06:40:17.722Z,9.47
2018-06-11T06:42:49.354Z,7.87
2018-06-11T06:45:21.105Z,8.93
2018-06-11T06:47:52.689Z,7.00
2018-06-11T06:50:24.381Z,5.73
2018-06-11T06:52:55.998Z,8.17
2018-06-11T06:55:27.530Z,6.90
2018-06-11T06:57:59.198Z,4.63
2018-06-11T07:00:30.791Z,6.20
2018-06-11T07:03:02.389Z,5.47
2018-06-11T07:05:34.053Z,4.47
2018-06-11T07:08:05.681Z,4.13
2018-06-11T07:10:37.447Z,4.17
2018-06-11T07:13:09.193Z,4.07
2018-06-11T07:15:40.918Z,4.60
2018-06-11T07:18:12.472Z,4.30
2018-06-11T07:20:44.102Z,4.53
2018-06-11T07:23:15.674Z,10.40
2018-06-11T07:25:47.312Z,5.30
2018-06-11T07:28:18.899Z,5.30
2018-06-11T07:30:50.621Z,5.57
2018-06-11T07:33:22.205Z,4.87
2018-06-11T07:35:53.868Z,11.37
2018-06-11T07:38:25.697Z,7.97
2018-06-11T07:40:57.323Z,9.20
2018-06-11T07:43:28.890Z,8.33
2018-06-11T07:46:00.571Z,7.23
2018-06-11T07:48:32.260Z,6.93
2018-06-11T07:51:03.888Z,5.63
2018-06-11T07:53:35.636Z,9.33
2018-06-11T07:56:07.495Z,6.40
2018-06-11T07:58:39.086Z,6.03
2018-06-11T08:01:10.664Z,6.50
2018-06-11T08:03:42.468Z,4.73
2018-06-11T08:06:14.005Z,5.60
2018-06-11T08:08:45.569Z,5.00
2018-06-11T08:11:17.236Z,5.17
2018-06-11T08:13:48.895Z,9.87
2018-06-11T08:16:20.469Z,8.10
2018-06-11T08:18:51.993Z,5.23
2018-06-11T08:21:23.558Z,7.10
2018-06-11T08:23:55.213Z,6.03
2018-06-11T08:26:26.893Z,5.70
2018-06-11T08:28:58.521Z,8.03
2018-06-11T08:31:30.178Z,7.33
2018-06-11T08:34:01.843Z,6.27
2018-06-11T08:36:33.493Z,5.93
2018-06-11T08:39:07.045Z,8.20
2018-06-11T08:41:38.753Z,6.37
2018-06-11T08:44:10.325Z,5.23
2018-06-11T08:46:42.079Z,4.67
2018-06-11T08:49:13.654Z,4.87
2018-06-11T08:51:45.386Z,5.73
2018-06-11T08:54:17.037Z,4.47
2018-06-11T08:56:48.650Z,5.23
2018-06-11T08:59:20.604Z,7.53
2018-06-11T09:01:52.349Z,6.67
2018-06-11T09:04:24.273Z,9.90
2018-06-11T09:06:56.034Z,7.00
2018-06-11T09:09:27.618Z,5.13
2018-06-11T09:11:59.235Z,4.70
2018-06-11T09:14:30.900Z,5.67
2018-06-11T09:17:02.583Z,5.30
2018-06-11T09:19:34.002Z,7.60
2018-06-11T09:22:05.660Z,9.90
2018-06-11T09:24:37.212Z,9.87
2018-06-11T09:27:08.976Z,9.93
2018-06-11T09:29:40.530Z,7.87
2018-06-11T09:32:12.286Z,9.17
2018-06-11T09:34:43.869Z,8.07
2018-06-11T09:37:15.613Z,6.33
2018-06-11T09:39:47.254Z,7.47
2018-06-11T09:42:18.837Z,9.10
2018-06-11T09:44:50.665Z,8.07
2018-06-11T09:47:21.796Z,9.57
2018-06-11T09:49:53.201Z,9.20
2018-06-11T09:52:24.813Z,8.60
2018-06-11T09:54:56.364Z,9.27
2018-06-11T09:57:28.097Z,9.57
2018-06-11T09:59:59.832Z,9.63
2018-06-11T10:02:31.625Z,9.57
2018-06-11T10:05:03.232Z,9.70
2018-06-11T10:07:34.857Z,8.40
2018-06-11T10:10:06.647Z,7.67
2018-06-11T10:12:38.169Z,7.17
2018-06-11T10:15:09.725Z,5.93
2018-06-11T10:17:41.380Z,5.83
2018-06-11T10:20:12.971Z,6.90
2018-06-11T10:22:44.619Z,6.47
2018-06-11T10:25:16.172Z,6.67
2018-06-11T10:27:47.686Z,4.47
2018-06-11T10:30:19.368Z,4.70
2018-06-11T10:32:50.942Z,5.07
2018-06-11T10:35:22.458Z,4.27
2018-06-11T10:37:54.133Z,4.83
2018-06-11T10:40:25.885Z,4.30
2018-06-11T10:42:57.548Z,6.77
2018-06-11T10:45:29.160Z,5.80
2018-06-11T10:48:00.786Z,8.50
2018-06-11T10:50:32.527Z,5.00
2018-06-11T10:53:03.627Z,4.80
2018-06-11T10:55:35.636Z,3.80
2018-06-11T10:58:07.373Z,3.40
2018-06-11T11:00:39.387Z,3.10
2018-06-11T11:03:11.113Z,3.07
2018-06-11T11:05:43.109Z,2.50
2018-06-11T11:08:15.336Z,3.00
2018-06-11T11:10:47.468Z,3.00
2018-06-11T11:13:19.333Z,4.03
2018-06-11T11:15:50.941Z,3.50
2018-06-11T11:18:22.492Z,3.23
2018-06-11T11:20:54.070Z,3.10
2018-06-11T11:23:25.680Z,4.17
2018-06-11T11:25:57.357Z,3.77
2018-06-11T11:28:28.920Z,5.70
2018-06-11T11:31:00.478Z,6.50
2018-06-11T11:33:32.241Z,6.10
2018-06-11T11:36:04.023Z,4.47
2018-06-11T11:38:35.628Z,5.47
2018-06-11T11:41:07.281Z,5.57
2018-06-11T11:43:38.931Z,4.90
2018-06-11T11:46:10.504Z,3.10
2018-06-11T11:48:42.176Z,3.10
2018-06-11T11:51:13.915Z,3.67
2018-06-11T11:53:45.670Z,4.13
2018-06-11T11:56:17.355Z,3.50
2018-06-11T11:58:49.000Z,3.73
2018-06-11T12:01:20.646Z,3.40
2018-06-11T12:03:52.207Z,3.63
2018-06-11T12:06:23.856Z,2.50
2018-06-11T12:08:55.385Z,4.50
2018-06-11T12:11:27.044Z,4.90
2018-06-11T12:13:58.809Z,3.80
2018-06-11T12:16:30.388Z,4.40
2018-06-11T12:19:02.100Z,3.20
2018-06-11T12:21:36.372Z,4.23
2018-06-11T12:24:17.265Z,4.53
2018-06-11T12:26:56.130Z,4.13
2018-06-11T12:29:33.611Z,3.47
2018-06-11T12:32:05.917Z,2.97
2018-06-11T12:34:37.550Z,2.40
2018-06-11T12:37:09.145Z,3.37
2018-06-11T12:39:40.824Z,3.27
2018-06-11T12:42:12.546Z,4.00
2018-06-11T12:44:44.180Z,3.17
2018-06-11T12:47:15.773Z,3.30
2018-06-11T12:49:47.397Z,3.53
2018-06-11T12:52:19.052Z,4.43
2018-06-11T12:54:50.639Z,4.87
2018-06-11T12:57:22.253Z,3.93
2018-06-11T12:59:53.824Z,4.10
2018-06-11T13:02:25.483Z,3.83
2018-06-11T13:04:57.133Z,3.23
2018-06-11T13:07:28.888Z,3.63
2018-06-11T13:10:00.648Z,3.33
2018-06-11T13:12:32.433Z,3.20
2018-06-11T13:15:04.074Z,3.30
2018-06-11T13:17:35.643Z,4.00
2018-06-11T13:20:07.178Z,3.70
2018-06-11T13:22:38.814Z,3.83
2018-06-11T13:25:10.488Z,4.23
2018-06-11T13:27:42.067Z,3.40
2018-06-11T13:30:13.860Z,3.00
2018-06-11T13:32:45.513Z,3.03
2018-06-11T13:35:17.114Z,2.50
2018-06-11T13:37:48.762Z,2.37
2018-06-11T13:40:20.340Z,1.90
2018-06-11T13:42:52.033Z,1.60
2018-06-11T13:45:23.664Z,2.20
2018-06-11T13:47:55.389Z,4.53
2018-06-11T13:50:27.055Z,3.10
2018-06-11T13:52:58.598Z,4.60
2018-06-11T13:55:30.258Z,2.93
2018-06-11T13:58:02.242Z,2.40
2018-06-11T14:00:33.947Z,4.93
2018-06-11T14:03:05.854Z,4.73
2018-06-11T14:05:37.441Z,4.40
2018-06-11T14:08:09.197Z,4.00
2018-06-11T14:10:40.846Z,4.43
2018-06-11T14:13:12.608Z,4.27
2018-06-11T14:15:44.240Z,3.07
2018-06-11T14:18:15.901Z,2.80
2018-06-11T14:20:47.542Z,2.10
2018-06-11T14:23:19.026Z,1.90
2018-06-11T14:25:50.680Z,1.90
2018-06-11T14:28:22.438Z,1.87
2018-06-11T14:30:54.006Z,2.20
2018-06-11T14:33:25.722Z,2.63
2018-06-11T14:35:57.369Z,2.10
2018-06-11T14:38:28.930Z,1.40
2018-06-11T14:41:00.659Z,3.10
2018-06-11T14:43:32.274Z,2.80
2018-06-11T14:46:03.921Z,2.90
2018-06-11T14:48:35.612Z,2.40
2018-06-11T14:51:07.350Z,4.00
2018-06-11T14:53:39.010Z,3.10
2018-06-11T14:56:10.617Z,2.43
2018-06-11T14:58:42.290Z,2.23
2018-06-11T15:01:13.905Z,2.07
2018-06-11T15:03:45.648Z,3.30
2018-06-11T15:06:17.357Z,2.00
2018-06-11T15:08:48.928Z,2.13
2018-06-11T15:11:20.584Z,4.70
2018-06-11T15:13:52.528Z,3.57
2018-06-11T15:16:24.342Z,4.07
2018-06-11T15:18:56.253Z,5.17
2018-06-11T15:21:27.902Z,6.23
2018-06-11T15:23:59.461Z,8.37
2018-06-11T15:26:31.190Z,9.50
2018-06-11T15:29:02.889Z,7.17
2018-06-11T15:31:34.440Z,7.63
2018-06-11T15:34:06.144Z,8.03
2018-06-11T15:36:37.672Z,9.30
2018-06-11T15:39:10.128Z,7.90
2018-06-11T15:41:41.682Z,12.07
2018-06-11T15:44:13.367Z,9.77
2018-06-11T15:46:44.973Z,8.20
2018-06-11T15:49:16.649Z,6.43
2018-06-11T15:51:48.210Z,6.47
2018-06-11T15:54:19.759Z,11.17
2018-06-11T15:56:51.110Z,11.83
2018-06-11T15:59:22.586Z,10.03
2018-06-11T16:01:54.311Z,11.93
2018-06-11T16:04:25.992Z,12.43
2018-06-11T16:06:57.557Z,12.07
2018-06-11T16:09:29.444Z,15.03
2018-06-11T16:12:01.621Z,15.97
2018-06-11T16:14:33.476Z,18.47
2018-06-11T16:17:05.331Z,13.20
2018-06-11T16:19:37.041Z,11.17
2018-06-11T16:22:08.797Z,16.30
2018-06-11T16:24:40.471Z,12.20
2018-06-11T16:27:12.118Z,12.23
2018-06-11T16:29:43.663Z,10.47
2018-06-11T16:32:15.236Z,11.10
2018-06-11T16:34:46.774Z,14.33
2018-06-11T16:37:18.429Z,8.37
2018-06-11T16:39:50.083Z,10.00
2018-06-11T16:42:21.243Z,11.27
2018-06-11T16:44:52.593Z,7.97
2018-06-11T16:47:24.339Z,9.00
2018-06-11T16:49:55.452Z,8.50
2018-06-11T16:52:27.033Z,8.60
2018-06-11T16:54:58.581Z,7.90
2018-06-11T16:57:30.284Z,7.00
2018-06-11T17:00:02.186Z,8.30
2018-06-11T17:02:33.917Z,11.93
2018-06-11T17:05:05.730Z,8.80
2018-06-11T17:07:37.313Z,11.77
2018-06-11T17:10:08.965Z,13.17
2018-06-11T17:12:40.590Z,14.27
2018-06-11T17:15:12.294Z,13.50
2018-06-11T17:17:44.014Z,10.80
2018-06-11T17:20:15.880Z,9.07
2018-06-11T17:22:47.831Z,7.57
2018-06-11T17:25:19.633Z,14.63
2018-06-11T17:27:51.341Z,13.00
2018-06-11T17:30:22.910Z,11.83
2018-06-11T17:32:54.602Z,9.57
2018-06-11T17:35:26.309Z,7.43
2018-06-11T17:37:57.958Z,9.20
2018-06-11T17:40:29.636Z,11.23
2018-06-11T17:43:01.387Z,14.67
2018-06-11T17:45:32.979Z,14.43
2018-06-11T17:48:04.769Z,9.50
2018-06-11T17:50:39.325Z,8.67
2018-06-11T17:53:10.811Z,6.87
2018-06-11T17:55:42.550Z,13.63
2018-06-11T17:58:14.119Z,8.63
2018-06-11T18:00:45.657Z,7.53
2018-06-11T18:03:17.225Z,6.27
2018-06-11T18:05:48.765Z,14.30
2018-06-11T18:08:20.407Z,6.50
2018-06-11T18:10:52.124Z,5.73
2018-06-11T18:13:23.821Z,5.53
2018-06-11T18:15:55.367Z,6.63
2018-06-11T18:18:27.046Z,6.00
2018-06-11T18:20:58.761Z,8.80
2018-06-11T18:23:30.448Z,16.87
2018-06-11T18:26:02.022Z,12.00
2018-06-11T18:28:33.766Z,7.77
2018-06-11T18:31:05.521Z,7.37
2018-06-11T18:33:37.189Z,9.27
2018-06-11T18:36:08.761Z,9.17
2018-06-11T18:38:40.391Z,8.53
2018-06-11T18:41:12.046Z,15.80
2018-06-11T18:43:43.597Z,19.50
2018-06-11T18:46:15.273Z,9.63
2018-06-11T18:48:46.860Z,10.83
2018-06-11T18:51:18.580Z,11.00
2018-06-11T18:53:50.237Z,12.30
2018-06-11T18:56:21.785Z,14.50
2018-06-11T18:58:53.381Z,10.60
2018-06-11T19:01:25.053Z,17.50
2018-06-11T19:03:56.680Z,14.10
2018-06-11T19:06:28.331Z,13.77
2018-06-11T19:09:00.165Z,11.33
2018-06-11T19:11:31.338Z,14.50
2018-06-11T19:14:02.978Z,11.83
2018-06-11T19:16:34.633Z,11.90
2018-06-11T19:19:05.813Z,7.93
2018-06-11T19:21:37.493Z,7.90
2018-06-11T19:24:09.262Z,8.47
2018-06-11T19:26:40.881Z,8.37
2018-06-11T19:29:12.638Z,8.90
2018-06-11T19:31:44.574Z,8.97
2018-06-11T19:34:16.523Z,8.47
2018-06-11T19:36:48.215Z,5.87
2018-06-11T19:39:20.044Z,8.17
2018-06-11T19:41:51.705Z,6.23
2018-06-11T19:44:23.254Z,4.90
2018-06-11T19:46:54.917Z,4.43
2018-06-11T19:49:26.453Z,5.27
2018-06-11T19:51:58.115Z,5.60
2018-06-11T19:54:29.712Z,4.80
2018-06-11T19:57:01.434Z,6.20
2018-06-11T19:59:33.010Z,2.90
2018-06-11T20:02:05.050Z,4.67
2018-06-11T20:04:36.809Z,5.53
2018-06-11T20:07:08.418Z,5.03
2018-06-11T20:09:40.044Z,7.03
2018-06-11T20:12:11.750Z,4.50
2018-06-11T20:14:43.370Z,3.87
2018-06-11T20:17:14.980Z,3.77
2018-06-11T20:19:46.649Z,4.80
2018-06-11T20:22:18.248Z,3.90
2018-06-11T20:24:50.005Z,2.27
2018-06-11T20:27:21.736Z,1.97
2018-06-11T20:29:53.486Z,0.80
2018-06-11T20:32:25.331Z,0.37
2018-06-11T20:34:56.993Z,0.77
2018-06-11T20:37:28.581Z,5.23
2018-06-11T20:40:00.395Z,3.87
2018-06-11T20:42:32.117Z,2.90
2018-06-11T20:45:03.850Z,2.10
2018-06-11T20:47:35.492Z,2.20
2018-06-11T20:50:07.174Z,2.10
2018-06-11T20:52:38.785Z,5.37
2018-06-11T20:55:10.661Z,5.43
2018-06-11T20:57:42.233Z,3.20
2018-06-11T21:00:13.869Z,5.83
2018-06-11T21:02:45.536Z,6.40
2018-06-11T21:05:17.337Z,5.17
2018-06-11T21:07:49.105Z,6.97
2018-06-11T21:10:20.808Z,5.97
2018-06-11T21:12:52.463Z,6.20
2018-06-11T21:15:24.140Z,4.63
2018-06-11T21:17:55.873Z,4.90
2018-06-11T21:20:27.595Z,6.97
2018-06-11T21:22:59.210Z,6.80
2018-06-11T21:25:30.937Z,5.77
2018-06-11T21:28:02.914Z,4.73
2018-06-11T21:30:34.591Z,5.30
2018-06-11T21:33:06.221Z,6.03
2018-06-11T21:35:37.882Z,4.73
2018-06-11T21:38:09.532Z,3.90
2018-06-11T21:40:41.088Z,5.17
2018-06-11T21:43:12.668Z,4.57
2018-06-11T21:45:44.304Z,5.10
2018-06-11T21:48:16.158Z,4.50
2018-06-11T21:50:47.824Z,6.00
2018-06-11T21:53:19.409Z,4.83
2018-06-11T21:55:51.085Z,4.70
2018-06-11T21:58:22.719Z,4.67
2018-06-11T22:00:54.391Z,4.87
2018-06-11T22:03:26.111Z,6.93
2018-06-11T22:05:57.789Z,5.37
2018-06-11T22:08:29.332Z,6.30
2018-06-11T22:11:00.899Z,5.90
2018-06-11T22:13:32.509Z,5.03
2018-06-11T22:16:04.076Z,4.70
2018-06-11T22:18:35.738Z,8.67
2018-06-11T22:21:07.393Z,5.73
2018-06-11T22:23:38.933Z,5.63
2018-06-11T22:26:10.608Z,5.23
2018-06-11T22:28:42.177Z,4.37
2018-06-11T22:31:14.011Z,5.00
2018-06-11T22:33:46.076Z,4.37
2018-06-11T22:36:18.033Z,5.40
2018-06-11T22:38:49.790Z,6.43
2018-06-11T22:41:21.498Z,4.03
2018-06-11T22:43:53.108Z,4.87
2018-06-11T22:46:24.865Z,5.13
2018-06-11T22:48:56.405Z,4.30
2018-06-11T22:51:28.081Z,3.90
2018-06-11T22:53:59.801Z,5.40
2018-06-11T22:56:31.459Z,4.00
2018-06-11T22:59:03.259Z,4.20
2018-06-11T23:01:34.916Z,4.40
2018-06-11T23:04:06.594Z,4.10
2018-06-11T23:06:38.244Z,4.50
2018-06-11T23:09:10.186Z,3.77
2018-06-11T23:11:41.846Z,4.77
2018-06-11T23:14:13.500Z,3.57
2018-06-11T23:16:45.173Z,3.80
2018-06-11T23:19:16.747Z,2.80
2018-06-11T23:21:48.562Z,3.03
2018-06-11T23:24:20.225Z,3.50
2018-06-11T23:26:51.988Z,4.57
2018-06-11T23:29:23.654Z,4.73
2018-06-11T23:31:55.221Z,4.43
2018-06-11T23:34:26.371Z,5.73
2018-06-11T23:36:57.896Z,3.60
2018-06-11T23:39:29.759Z,3.87
2018-06-11T23:42:01.333Z,3.37
2018-06-11T23:44:32.973Z,4.70
2018-06-11T23:47:04.549Z,4.20
2018-06-11T23:49:36.064Z,3.27
2018-06-11T23:52:07.735Z,4.43
2018-06-11T23:54:39.319Z,3.40
2018-06-11T23:57:11.051Z,4.23
2018-06-11T23:59:42.625Z,4.13
